createdAt,value
2023-03-23T16:06:37.855Z,3.00
2023-03-23T16:16:48.709Z,7.30
2023-03-23T16:26:57.794Z,7.20
2023-03-23T16:37:07.172Z,3.80
2023-03-23T16:47:14.574Z,34.70
2023-03-23T16:57:22.315Z,9.10
2023-03-23T17:07:29.714Z,21.10
2023-03-23T17:17:36.510Z,84.20
2023-03-23T17:27:43.959Z,36.90
2023-03-23T17:37:51.753Z,43.20
2023-03-23T17:47:58.922Z,61.00
2023-03-23T17:58:06.459Z,127.70
2023-03-23T18:08:13.841Z,56.40
2023-03-23T18:18:21.159Z,98.50
2023-03-23T18:28:28.342Z,83.40
2023-03-23T18:38:37.538Z,77.20
2023-03-23T18:48:45.408Z,95.60
2023-03-23T18:58:54.498Z,123.40
2023-03-23T19:09:01.642Z,111.90
2023-03-23T19:19:08.672Z,94.10
2023-03-23T19:29:26.717Z,94.70
2023-03-23T19:39:34.618Z,74.60
2023-03-23T19:59:48.825Z,44.70
2023-03-23T20:09:56.092Z,42.00
2023-03-23T20:20:06.360Z,38.20
2023-03-23T20:30:11.762Z,33.40
2023-03-23T20:40:18.860Z,46.90
2023-03-23T20:50:25.273Z,50.70
2023-03-23T21:00:32.337Z,70.40
2023-03-23T21:10:39.586Z,44.60
2023-03-23T21:20:47.343Z,32.00
2023-03-23T21:30:55.336Z,36.30
2023-03-23T21:41:09.746Z,32.50
2023-03-23T21:51:18.520Z,21.40
2023-03-23T22:01:25.889Z,25.30
2023-03-23T22:11:33.721Z,18.90
2023-03-23T22:21:41.174Z,16.50
2023-03-23T22:31:48.568Z,16.10
2023-03-23T22:41:55.808Z,15.30
2023-03-23T22:52:02.805Z,17.10
2023-03-23T23:02:09.955Z,15.70
2023-03-23T23:12:18.466Z,15.70
2023-03-23T23:22:25.585Z,17.90
2023-03-23T23:32:34.160Z,19.30
2023-03-23T23:42:41.567Z,19.10
2023-03-23T23:52:50.363Z,18.90
